Tapps Island, Washington
Current Conditions -  °F | °C
As of 8:58 AM on Thursday 30 Oct 2014 (Local Time) from KTCM Reporting Station
Light Rain Light Rain  
Wind Chill: 53°   Ceiling: 7500
Heat Index: 53°   Visibility: 10mi
Dew Point: 53°   Wind: 2mph
Humidity: 99%   Direction: 260°W
Pressure: 29.88"   Gusts: NA
Location:  47.1874°N, 122.164°W
Report Text: KTCM 301558Z AUTO 26002KT 10SM -RA FEW060 BKN075 OVC090 12/12 A2988 RMK AO2 SLP122 P0004 T01170116
Loading
Personal Weather Stations






























Interactive Weather Map
Tropical Storm Tracking
New forecast layout! Learn more

10-Day Weather Forecast

Advertisements
Track Severe Weather on mobile